sensor_id;sensor_type;location;lat;lon;timestamp;P1;durP1;ratioP1;P2;durP2;ratioP2
12925;SDS011;6529;50.566;9.774;2023-06-26T00:02:17;4.57;;;4.18;;
12925;SDS011;6529;50.566;9.774;2023-06-26T00:04:43;4.47;;;4.07;;
12925;SDS011;6529;50.566;9.774;2023-06-26T00:07:08;5.50;;;4.45;;
12925;SDS011;6529;50.566;9.774;2023-06-26T00:09:34;4.53;;;4.13;;
12925;SDS011;6529;50.566;9.774;2023-06-26T00:12:00;4.60;;;4.07;;
12925;SDS011;6529;50.566;9.774;2023-06-26T00:14:26;5.65;;;4.22;;
12925;SDS011;6529;50.566;9.774;2023-06-26T00:16:51;4.43;;;4.03;;
12925;SDS011;6529;50.566;9.774;2023-06-26T00:19:17;4.90;;;4.40;;
12925;SDS011;6529;50.566;9.774;2023-06-26T00:21:43;5.85;;;4.47;;
12925;SDS011;6529;50.566;9.774;2023-06-26T00:24:11;5.05;;;4.30;;
12925;SDS011;6529;50.566;9.774;2023-06-26T00:26:38;4.60;;;4.05;;
12925;SDS011;6529;50.566;9.774;2023-06-26T00:29:03;4.18;;;3.78;;
12925;SDS011;6529;50.566;9.774;2023-06-26T00:31:29;4.50;;;3.88;;
12925;SDS011;6529;50.566;9.774;2023-06-26T00:33:55;4.60;;;4.00;;
12925;SDS011;6529;50.566;9.774;2023-06-26T00:36:21;4.63;;;4.20;;
12925;SDS011;6529;50.566;9.774;2023-06-26T00:38:47;4.28;;;3.88;;
12925;SDS011;6529;50.566;9.774;2023-06-26T00:41:13;5.13;;;4.15;;
12925;SDS011;6529;50.566;9.774;2023-06-26T00:43:39;4.65;;;4.15;;
12925;SDS011;6529;50.566;9.774;2023-06-26T00:46:05;4.90;;;4.20;;
12925;SDS011;6529;50.566;9.774;2023-06-26T00:48:37;4.72;;;3.95;;
12925;SDS011;6529;50.566;9.774;2023-06-26T00:51:06;4.30;;;3.90;;
12925;SDS011;6529;50.566;9.774;2023-06-26T00:53:32;4.32;;;3.92;;
12925;SDS011;6529;50.566;9.774;2023-06-26T00:55:58;4.60;;;4.00;;
12925;SDS011;6529;50.566;9.774;2023-06-26T00:58:24;4.78;;;4.28;;
12925;SDS011;6529;50.566;9.774;2023-06-26T01:00:50;4.63;;;4.05;;
12925;SDS011;6529;50.566;9.774;2023-06-26T01:03:17;5.05;;;4.18;;
12925;SDS011;6529;50.566;9.774;2023-06-26T01:05:43;4.28;;;3.80;;
12925;SDS011;6529;50.566;9.774;2023-06-26T01:08:11;4.93;;;4.43;;
12925;SDS011;6529;50.566;9.774;2023-06-26T01:10:38;4.45;;;4.05;;
12925;SDS011;6529;50.566;9.774;2023-06-26T01:13:04;5.15;;;4.25;;
12925;SDS011;6529;50.566;9.774;2023-06-26T01:15:30;5.57;;;4.30;;
12925;SDS011;6529;50.566;9.774;2023-06-26T01:17:55;4.63;;;4.13;;
12925;SDS011;6529;50.566;9.774;2023-06-26T01:20:24;5.10;;;4.18;;
12925;SDS011;6529;50.566;9.774;2023-06-26T01:28:26;5.38;;;4.43;;
12925;SDS011;6529;50.566;9.774;2023-06-26T01:30:53;5.03;;;4.53;;
12925;SDS011;6529;50.566;9.774;2023-06-26T01:33:19;4.72;;;3.90;;
12925;SDS011;6529;50.566;9.774;2023-06-26T01:35:45;4.93;;;4.27;;
12925;SDS011;6529;50.566;9.774;2023-06-26T01:38:20;5.40;;;4.53;;
12925;SDS011;6529;50.566;9.774;2023-06-26T01:40:57;4.90;;;4.40;;
12925;SDS011;6529;50.566;9.774;2023-06-26T01:49:12;4.27;;;3.87;;
12925;SDS011;6529;50.566;9.774;2023-06-26T01:51:42;4.83;;;3.87;;
12925;SDS011;6529;50.566;9.774;2023-06-26T01:54:17;5.47;;;4.10;;
12925;SDS011;6529;50.566;9.774;2023-06-26T01:56:44;4.97;;;4.37;;
12925;SDS011;6529;50.566;9.774;2023-06-26T01:59:13;4.80;;;4.30;;
12925;SDS011;6529;50.566;9.774;2023-06-26T02:01:40;5.07;;;4.53;;
12925;SDS011;6529;50.566;9.774;2023-06-26T02:04:05;4.83;;;4.33;;
12925;SDS011;6529;50.566;9.774;2023-06-26T02:06:31;5.60;;;4.23;;
12925;SDS011;6529;50.566;9.774;2023-06-26T02:08:57;5.10;;;4.40;;
12925;SDS011;6529;50.566;9.774;2023-06-26T02:11:22;4.73;;;4.33;;
12925;SDS011;6529;50.566;9.774;2023-06-26T02:13:48;4.90;;;4.30;;
12925;SDS011;6529;50.566;9.774;2023-06-26T02:16:14;5.10;;;4.40;;
12925;SDS011;6529;50.566;9.774;2023-06-26T02:18:39;4.90;;;4.20;;
12925;SDS011;6529;50.566;9.774;2023-06-26T02:21:05;4.90;;;4.47;;
12925;SDS011;6529;50.566;9.774;2023-06-26T02:23:31;5.03;;;4.00;;
12925;SDS011;6529;50.566;9.774;2023-06-26T02:25:57;5.27;;;4.77;;
12925;SDS011;6529;50.566;9.774;2023-06-26T02:28:22;4.60;;;4.17;;
12925;SDS011;6529;50.566;9.774;2023-06-26T02:30:48;4.70;;;4.20;;
12925;SDS011;6529;50.566;9.774;2023-06-26T02:33:13;5.00;;;4.37;;
12925;SDS011;6529;50.566;9.774;2023-06-26T02:35:39;5.03;;;4.53;;
12925;SDS011;6529;50.566;9.774;2023-06-26T02:38:04;5.17;;;4.67;;
12925;SDS011;6529;50.566;9.774;2023-06-26T02:40:31;5.30;;;4.53;;
12925;SDS011;6529;50.566;9.774;2023-06-26T02:42:57;5.40;;;4.30;;
12925;SDS011;6529;50.566;9.774;2023-06-26T02:45:23;5.27;;;4.77;;
12925;SDS011;6529;50.566;9.774;2023-06-26T02:47:48;5.07;;;4.30;;
12925;SDS011;6529;50.566;9.774;2023-06-26T02:50:14;4.70;;;4.23;;
12925;SDS011;6529;50.566;9.774;2023-06-26T02:52:39;5.53;;;4.50;;
12925;SDS011;6529;50.566;9.774;2023-06-26T02:55:05;4.87;;;4.10;;
12925;SDS011;6529;50.566;9.774;2023-06-26T02:57:31;6.27;;;4.50;;
12925;SDS011;6529;50.566;9.774;2023-06-26T02:59:56;4.50;;;4.10;;
12925;SDS011;6529;50.566;9.774;2023-06-26T03:02:22;4.53;;;4.00;;
12925;SDS011;6529;50.566;9.774;2023-06-26T03:04:47;5.37;;;4.60;;
12925;SDS011;6529;50.566;9.774;2023-06-26T03:07:14;5.00;;;4.50;;
12925;SDS011;6529;50.566;9.774;2023-06-26T03:09:41;6.07;;;4.17;;
12925;SDS011;6529;50.566;9.774;2023-06-26T03:12:07;4.70;;;4.00;;
12925;SDS011;6529;50.566;9.774;2023-06-26T03:14:33;5.30;;;4.10;;
12925;SDS011;6529;50.566;9.774;2023-06-26T03:16:58;5.13;;;4.63;;
12925;SDS011;6529;50.566;9.774;2023-06-26T03:19:28;5.97;;;4.33;;
12925;SDS011;6529;50.566;9.774;2023-06-26T03:21:53;5.50;;;4.70;;
12925;SDS011;6529;50.566;9.774;2023-06-26T03:24:20;4.90;;;4.40;;
12925;SDS011;6529;50.566;9.774;2023-06-26T03:26:45;5.60;;;4.20;;
12925;SDS011;6529;50.566;9.774;2023-06-26T03:29:11;5.97;;;4.73;;
12925;SDS011;6529;50.566;9.774;2023-06-26T03:31:36;5.07;;;4.20;;
12925;SDS011;6529;50.566;9.774;2023-06-26T03:34:02;4.97;;;4.30;;
12925;SDS011;6529;50.566;9.774;2023-06-26T03:36:28;5.10;;;4.57;;
12925;SDS011;6529;50.566;9.774;2023-06-26T03:38:53;5.43;;;4.93;;
12925;SDS011;6529;50.566;9.774;2023-06-26T03:41:21;6.07;;;4.77;;
12925;SDS011;6529;50.566;9.774;2023-06-26T03:43:48;5.20;;;4.70;;
12925;SDS011;6529;50.566;9.774;2023-06-26T03:46:14;5.47;;;4.40;;
12925;SDS011;6529;50.566;9.774;2023-06-26T03:48:39;5.47;;;4.93;;
12925;SDS011;6529;50.566;9.774;2023-06-26T03:51:05;5.53;;;4.53;;
12925;SDS011;6529;50.566;9.774;2023-06-26T03:53:32;6.37;;;4.63;;
12925;SDS011;6529;50.566;9.774;2023-06-26T03:55:58;5.77;;;5.07;;
12925;SDS011;6529;50.566;9.774;2023-06-26T03:58:23;5.27;;;4.67;;
12925;SDS011;6529;50.566;9.774;2023-06-26T04:00:50;5.30;;;4.80;;
12925;SDS011;6529;50.566;9.774;2023-06-26T04:03:15;5.60;;;4.67;;
12925;SDS011;6529;50.566;9.774;2023-06-26T04:05:41;6.07;;;4.67;;
12925;SDS011;6529;50.566;9.774;2023-06-26T04:08:07;5.10;;;4.60;;
12925;SDS011;6529;50.566;9.774;2023-06-26T04:10:33;5.90;;;4.90;;
12925;SDS011;6529;50.566;9.774;2023-06-26T04:12:58;5.40;;;4.83;;
12925;SDS011;6529;50.566;9.774;2023-06-26T04:15:24;5.97;;;4.50;;
12925;SDS011;6529;50.566;9.774;2023-06-26T04:17:49;6.23;;;4.87;;
12925;SDS011;6529;50.566;9.774;2023-06-26T04:20:15;5.67;;;4.67;;
12925;SDS011;6529;50.566;9.774;2023-06-26T04:22:41;5.27;;;4.37;;
12925;SDS011;6529;50.566;9.774;2023-06-26T04:25:06;6.87;;;4.43;;
12925;SDS011;6529;50.566;9.774;2023-06-26T04:27:32;7.03;;;4.93;;
12925;SDS011;6529;50.566;9.774;2023-06-26T04:29:58;5.07;;;4.50;;
12925;SDS011;6529;50.566;9.774;2023-06-26T04:32:23;7.10;;;4.73;;
12925;SDS011;6529;50.566;9.774;2023-06-26T04:34:49;4.97;;;4.47;;
12925;SDS011;6529;50.566;9.774;2023-06-26T04:37:14;5.73;;;4.40;;
12925;SDS011;6529;50.566;9.774;2023-06-26T04:39:43;5.00;;;4.50;;
12925;SDS011;6529;50.566;9.774;2023-06-26T04:42:08;5.80;;;4.63;;
12925;SDS011;6529;50.566;9.774;2023-06-26T04:44:36;4.77;;;4.27;;
12925;SDS011;6529;50.566;9.774;2023-06-26T04:47:02;5.67;;;4.67;;
12925;SDS011;6529;50.566;9.774;2023-06-26T04:49:28;5.27;;;4.77;;
12925;SDS011;6529;50.566;9.774;2023-06-26T04:51:55;6.50;;;4.73;;
12925;SDS011;6529;50.566;9.774;2023-06-26T04:54:20;4.90;;;4.50;;
12925;SDS011;6529;50.566;9.774;2023-06-26T04:56:46;5.60;;;4.50;;
12925;SDS011;6529;50.566;9.774;2023-06-26T04:59:12;4.93;;;4.53;;
12925;SDS011;6529;50.566;9.774;2023-06-26T05:01:39;5.60;;;5.10;;
12925;SDS011;6529;50.566;9.774;2023-06-26T05:04:05;5.30;;;4.73;;
12925;SDS011;6529;50.566;9.774;2023-06-26T05:06:31;5.37;;;4.57;;
12925;SDS011;6529;50.566;9.774;2023-06-26T05:08:57;6.13;;;5.10;;
12925;SDS011;6529;50.566;9.774;2023-06-26T05:11:23;5.20;;;4.70;;
12925;SDS011;6529;50.566;9.774;2023-06-26T05:13:50;6.10;;;5.50;;
12925;SDS011;6529;50.566;9.774;2023-06-26T05:16:15;7.70;;;5.10;;
12925;SDS011;6529;50.566;9.774;2023-06-26T05:18:41;5.83;;;5.23;;
12925;SDS011;6529;50.566;9.774;2023-06-26T05:21:06;5.87;;;5.27;;
12925;SDS011;6529;50.566;9.774;2023-06-26T05:23:33;5.47;;;4.97;;
12925;SDS011;6529;50.566;9.774;2023-06-26T05:26:02;5.50;;;5.00;;
12925;SDS011;6529;50.566;9.774;2023-06-26T05:28:28;5.90;;;5.30;;
12925;SDS011;6529;50.566;9.774;2023-06-26T05:30:56;5.70;;;5.10;;
12925;SDS011;6529;50.566;9.774;2023-06-26T05:33:23;5.93;;;5.33;;
12925;SDS011;6529;50.566;9.774;2023-06-26T05:35:51;6.10;;;5.47;;
12925;SDS011;6529;50.566;9.774;2023-06-26T05:38:17;5.90;;;5.30;;
12925;SDS011;6529;50.566;9.774;2023-06-26T05:40:43;5.83;;;5.20;;
12925;SDS011;6529;50.566;9.774;2023-06-26T05:43:09;6.13;;;5.17;;
12925;SDS011;6529;50.566;9.774;2023-06-26T05:45:35;5.77;;;5.17;;
12925;SDS011;6529;50.566;9.774;2023-06-26T05:48:00;5.80;;;5.30;;
12925;SDS011;6529;50.566;9.774;2023-06-26T05:50:27;6.83;;;5.30;;
12925;SDS011;6529;50.566;9.774;2023-06-26T05:52:53;6.60;;;5.70;;
12925;SDS011;6529;50.566;9.774;2023-06-26T05:55:19;5.87;;;5.37;;
12925;SDS011;6529;50.566;9.774;2023-06-26T05:57:46;6.43;;;5.45;;
12925;SDS011;6529;50.566;9.774;2023-06-26T06:00:12;5.93;;;5.33;;
12925;SDS011;6529;50.566;9.774;2023-06-26T06:02:39;5.80;;;5.10;;
12925;SDS011;6529;50.566;9.774;2023-06-26T06:05:15;5.82;;;5.22;;
12925;SDS011;6529;50.566;9.774;2023-06-26T06:07:41;5.60;;;5.10;;
12925;SDS011;6529;50.566;9.774;2023-06-26T06:10:06;5.10;;;4.60;;
12925;SDS011;6529;50.566;9.774;2023-06-26T06:12:32;5.38;;;4.43;;
12925;SDS011;6529;50.566;9.774;2023-06-26T06:14:58;5.97;;;4.60;;
12925;SDS011;6529;50.566;9.774;2023-06-26T06:17:24;5.07;;;4.57;;
12925;SDS011;6529;50.566;9.774;2023-06-26T06:19:49;5.43;;;4.93;;
12925;SDS011;6529;50.566;9.774;2023-06-26T06:22:15;5.65;;;4.68;;
12925;SDS011;6529;50.566;9.774;2023-06-26T06:24:41;5.00;;;4.50;;
12925;SDS011;6529;50.566;9.774;2023-06-26T06:27:07;5.25;;;4.75;;
12925;SDS011;6529;50.566;9.774;2023-06-26T06:29:32;4.95;;;4.45;;
12925;SDS011;6529;50.566;9.774;2023-06-26T06:31:58;5.63;;;5.07;;
12925;SDS011;6529;50.566;9.774;2023-06-26T06:34:24;5.13;;;4.60;;
12925;SDS011;6529;50.566;9.774;2023-06-26T06:36:49;7.05;;;5.45;;
12925;SDS011;6529;50.566;9.774;2023-06-26T06:39:15;6.05;;;5.45;;
12925;SDS011;6529;50.566;9.774;2023-06-26T06:41:41;5.10;;;4.60;;
12925;SDS011;6529;50.566;9.774;2023-06-26T06:44:06;6.50;;;4.75;;
12925;SDS011;6529;50.566;9.774;2023-06-26T06:46:32;5.70;;;5.18;;
12925;SDS011;6529;50.566;9.774;2023-06-26T06:48:58;5.65;;;5.15;;
12925;SDS011;6529;50.566;9.774;2023-06-26T06:51:25;5.57;;;4.95;;
12925;SDS011;6529;50.566;9.774;2023-06-26T06:53:50;5.10;;;4.60;;
12925;SDS011;6529;50.566;9.774;2023-06-26T06:56:16;7.03;;;4.97;;
12925;SDS011;6529;50.566;9.774;2023-06-26T06:58:41;5.88;;;5.28;;
12925;SDS011;6529;50.566;9.774;2023-06-26T07:01:11;5.30;;;4.80;;
12925;SDS011;6529;50.566;9.774;2023-06-26T07:03:37;5.03;;;4.53;;
12925;SDS011;6529;50.566;9.774;2023-06-26T07:06:02;5.40;;;4.47;;
12925;SDS011;6529;50.566;9.774;2023-06-26T07:08:28;5.63;;;4.53;;
12925;SDS011;6529;50.566;9.774;2023-06-26T07:10:55;5.50;;;4.57;;
12925;SDS011;6529;50.566;9.774;2023-06-26T07:13:21;5.07;;;4.28;;
12925;SDS011;6529;50.566;9.774;2023-06-26T07:15:47;5.30;;;4.28;;
12925;SDS011;6529;50.566;9.774;2023-06-26T07:18:13;6.00;;;4.78;;
12925;SDS011;6529;50.566;9.774;2023-06-26T07:20:39;4.82;;;3.92;;
12925;SDS011;6529;50.566;9.774;2023-06-26T07:23:05;5.00;;;4.20;;
12925;SDS011;6529;50.566;9.774;2023-06-26T07:25:30;4.85;;;4.22;;
12925;SDS011;6529;50.566;9.774;2023-06-26T07:27:56;4.43;;;4.03;;
12925;SDS011;6529;50.566;9.774;2023-06-26T07:30:21;5.25;;;4.70;;
12925;SDS011;6529;50.566;9.774;2023-06-26T07:32:47;4.65;;;4.18;;
12925;SDS011;6529;50.566;9.774;2023-06-26T07:35:13;4.78;;;4.30;;
12925;SDS011;6529;50.566;9.774;2023-06-26T07:37:38;4.40;;;4.00;;
12925;SDS011;6529;50.566;9.774;2023-06-26T07:40:06;5.70;;;4.20;;
12925;SDS011;6529;50.566;9.774;2023-06-26T07:42:32;4.63;;;4.20;;
12925;SDS011;6529;50.566;9.774;2023-06-26T07:44:57;6.38;;;4.38;;
12925;SDS011;6529;50.566;9.774;2023-06-26T07:47:23;6.20;;;4.38;;
12925;SDS011;6529;50.566;9.774;2023-06-26T07:49:48;6.35;;;4.43;;
12925;SDS011;6529;50.566;9.774;2023-06-26T07:52:14;5.15;;;4.40;;
12925;SDS011;6529;50.566;9.774;2023-06-26T07:54:40;5.00;;;4.38;;
12925;SDS011;6529;50.566;9.774;2023-06-26T07:57:06;5.00;;;4.38;;
12925;SDS011;6529;50.566;9.774;2023-06-26T07:59:32;5.00;;;4.25;;
12925;SDS011;6529;50.566;9.774;2023-06-26T08:01:58;5.53;;;4.30;;
12925;SDS011;6529;50.566;9.774;2023-06-26T08:04:24;6.10;;;4.30;;
12925;SDS011;6529;50.566;9.774;2023-06-26T08:06:55;5.20;;;4.10;;
12925;SDS011;6529;50.566;9.774;2023-06-26T08:09:22;4.75;;;4.13;;
12925;SDS011;6529;50.566;9.774;2023-06-26T08:11:49;6.22;;;4.40;;
12925;SDS011;6529;50.566;9.774;2023-06-26T08:14:15;5.55;;;4.30;;
12925;SDS011;6529;50.566;9.774;2023-06-26T08:16:41;5.40;;;4.60;;
12925;SDS011;6529;50.566;9.774;2023-06-26T08:19:14;5.35;;;4.55;;
12925;SDS011;6529;50.566;9.774;2023-06-26T08:21:41;5.30;;;4.50;;
12925;SDS011;6529;50.566;9.774;2023-06-26T08:24:08;5.32;;;4.10;;
12925;SDS011;6529;50.566;9.774;2023-06-26T08:26:34;4.30;;;3.90;;
12925;SDS011;6529;50.566;9.774;2023-06-26T08:29:00;5.30;;;4.15;;
12925;SDS011;6529;50.566;9.774;2023-06-26T08:31:26;4.40;;;3.85;;
12925;SDS011;6529;50.566;9.774;2023-06-26T08:33:51;4.80;;;4.30;;
12925;SDS011;6529;50.566;9.774;2023-06-26T08:36:17;4.45;;;4.05;;
12925;SDS011;6529;50.566;9.774;2023-06-26T08:38:43;4.85;;;4.35;;
12925;SDS011;6529;50.566;9.774;2023-06-26T08:41:08;4.85;;;4.45;;
12925;SDS011;6529;50.566;9.774;2023-06-26T08:43:35;4.65;;;4.25;;
12925;SDS011;6529;50.566;9.774;2023-06-26T08:46:01;5.07;;;4.07;;
12925;SDS011;6529;50.566;9.774;2023-06-26T08:48:29;4.88;;;4.47;;
12925;SDS011;6529;50.566;9.774;2023-06-26T08:51:00;4.95;;;4.43;;
12925;SDS011;6529;50.566;9.774;2023-06-26T08:53:33;5.60;;;4.43;;
12925;SDS011;6529;50.566;9.774;2023-06-26T08:56:02;5.10;;;4.50;;
12925;SDS011;6529;50.566;9.774;2023-06-26T08:58:29;5.05;;;4.55;;
12925;SDS011;6529;50.566;9.774;2023-06-26T09:00:55;4.85;;;4.45;;
12925;SDS011;6529;50.566;9.774;2023-06-26T09:03:21;5.20;;;4.70;;
12925;SDS011;6529;50.566;9.774;2023-06-26T09:05:48;6.60;;;4.75;;
12925;SDS011;6529;50.566;9.774;2023-06-26T09:08:13;6.18;;;4.60;;
12925;SDS011;6529;50.566;9.774;2023-06-26T09:10:39;5.00;;;4.60;;
12925;SDS011;6529;50.566;9.774;2023-06-26T09:13:05;5.15;;;4.65;;
12925;SDS011;6529;50.566;9.774;2023-06-26T09:15:53;4.78;;;4.38;;
12925;SDS011;6529;50.566;9.774;2023-06-26T09:18:18;5.10;;;4.57;;
12925;SDS011;6529;50.566;9.774;2023-06-26T09:20:44;5.10;;;4.60;;
12925;SDS011;6529;50.566;9.774;2023-06-26T09:23:10;5.13;;;4.63;;
12925;SDS011;6529;50.566;9.774;2023-06-26T09:25:38;4.90;;;4.47;;
12925;SDS011;6529;50.566;9.774;2023-06-26T09:28:08;4.72;;;4.22;;
12925;SDS011;6529;50.566;9.774;2023-06-26T09:30:34;4.90;;;4.40;;
12925;SDS011;6529;50.566;9.774;2023-06-26T09:33:16;4.93;;;4.43;;
12925;SDS011;6529;50.566;9.774;2023-06-26T09:35:44;4.57;;;4.18;;
12925;SDS011;6529;50.566;9.774;2023-06-26T09:38:10;5.15;;;4.65;;
12925;SDS011;6529;50.566;9.774;2023-06-26T09:40:37;4.88;;;4.45;;
12925;SDS011;6529;50.566;9.774;2023-06-26T09:43:06;4.75;;;4.32;;
12925;SDS011;6529;50.566;9.774;2023-06-26T09:45:33;4.47;;;4.07;;
12925;SDS011;6529;50.566;9.774;2023-06-26T09:48:01;5.07;;;4.57;;
12925;SDS011;6529;50.566;9.774;2023-06-26T09:50:33;4.88;;;4.47;;
12925;SDS011;6529;50.566;9.774;2023-06-26T09:53:09;4.60;;;4.20;;
12925;SDS011;6529;50.566;9.774;2023-06-26T09:55:43;4.72;;;4.30;;
12925;SDS011;6529;50.566;9.774;2023-06-26T09:58:09;7.95;;;4.22;;
12925;SDS011;6529;50.566;9.774;2023-06-26T10:00:39;5.10;;;4.57;;
12925;SDS011;6529;50.566;9.774;2023-06-26T10:03:05;4.80;;;4.30;;
12925;SDS011;6529;50.566;9.774;2023-06-26T10:05:30;7.00;;;4.70;;
12925;SDS011;6529;50.566;9.774;2023-06-26T10:07:56;5.72;;;4.22;;
12925;SDS011;6529;50.566;9.774;2023-06-26T10:10:23;4.88;;;4.38;;
12925;SDS011;6529;50.566;9.774;2023-06-26T10:12:51;4.63;;;4.22;;
12925;SDS011;6529;50.566;9.774;2023-06-26T10:15:20;4.85;;;4.35;;
12925;SDS011;6529;50.566;9.774;2023-06-26T10:17:48;5.13;;;4.65;;
12925;SDS011;6529;50.566;9.774;2023-06-26T10:20:14;4.88;;;4.20;;
12925;SDS011;6529;50.566;9.774;2023-06-26T10:22:43;5.80;;;5.20;;
12925;SDS011;6529;50.566;9.774;2023-06-26T10:25:10;4.80;;;4.30;;
12925;SDS011;6529;50.566;9.774;2023-06-26T10:27:40;5.38;;;4.50;;
12925;SDS011;6529;50.566;9.774;2023-06-26T10:30:11;5.95;;;4.78;;
12925;SDS011;6529;50.566;9.774;2023-06-26T10:32:41;6.82;;;5.03;;
12925;SDS011;6529;50.566;9.774;2023-06-26T10:35:07;5.90;;;4.68;;
12925;SDS011;6529;50.566;9.774;2023-06-26T10:37:41;5.93;;;4.43;;
12925;SDS011;6529;50.566;9.774;2023-06-26T10:40:08;6.07;;;4.97;;
12925;SDS011;6529;50.566;9.774;2023-06-26T10:42:34;5.28;;;4.55;;
12925;SDS011;6529;50.566;9.774;2023-06-26T10:47:40;5.55;;;5.05;;
12925;SDS011;6529;50.566;9.774;2023-06-26T10:50:16;5.40;;;4.80;;
12925;SDS011;6529;50.566;9.774;2023-06-26T10:53:30;4.60;;;4.20;;
12925;SDS011;6529;50.566;9.774;2023-06-26T10:58:34;4.93;;;4.50;;
12925;SDS011;6529;50.566;9.774;2023-06-26T11:03:49;5.20;;;4.70;;
12925;SDS011;6529;50.566;9.774;2023-06-26T11:06:26;4.85;;;4.38;;
12925;SDS011;6529;50.566;9.774;2023-06-26T11:11:19;6.35;;;4.75;;
12925;SDS011;6529;50.566;9.774;2023-06-26T11:13:46;5.35;;;4.85;;
12925;SDS011;6529;50.566;9.774;2023-06-26T11:16:13;5.68;;;5.05;;
12925;SDS011;6529;50.566;9.774;2023-06-26T11:18:39;5.60;;;4.55;;
12925;SDS011;6529;50.566;9.774;2023-06-26T11:21:09;5.28;;;4.75;;
12925;SDS011;6529;50.566;9.774;2023-06-26T11:23:39;6.00;;;5.28;;
12925;SDS011;6529;50.566;9.774;2023-06-26T11:28:49;5.55;;;5.00;;
12925;SDS011;6529;50.566;9.774;2023-06-26T11:33:52;5.57;;;4.78;;
12925;SDS011;6529;50.566;9.774;2023-06-26T11:36:19;4.90;;;4.38;;
12925;SDS011;6529;50.566;9.774;2023-06-26T11:38:44;5.65;;;5.07;;
12925;SDS011;6529;50.566;9.774;2023-06-26T11:41:10;5.40;;;4.88;;
12925;SDS011;6529;50.566;9.774;2023-06-26T11:43:41;6.10;;;5.20;;
12925;SDS011;6529;50.566;9.774;2023-06-26T11:46:07;5.22;;;4.72;;
12925;SDS011;6529;50.566;9.774;2023-06-26T11:48:32;5.60;;;5.10;;
12925;SDS011;6529;50.566;9.774;2023-06-26T11:50:58;6.07;;;5.30;;
12925;SDS011;6529;50.566;9.774;2023-06-26T11:53:23;6.03;;;5.18;;
12925;SDS011;6529;50.566;9.774;2023-06-26T11:55:49;6.18;;;5.40;;
12925;SDS011;6529;50.566;9.774;2023-06-26T11:58:14;7.22;;;5.60;;
12925;SDS011;6529;50.566;9.774;2023-06-26T12:00:43;5.93;;;5.28;;
12925;SDS011;6529;50.566;9.774;2023-06-26T12:03:09;5.70;;;5.20;;
12925;SDS011;6529;50.566;9.774;2023-06-26T12:05:35;6.53;;;5.88;;
12925;SDS011;6529;50.566;9.774;2023-06-26T12:08:00;6.05;;;5.50;;
12925;SDS011;6529;50.566;9.774;2023-06-26T12:10:28;6.03;;;5.47;;
12925;SDS011;6529;50.566;9.774;2023-06-26T12:12:54;6.47;;;5.80;;
12925;SDS011;6529;50.566;9.774;2023-06-26T12:15:23;6.07;;;5.18;;
12925;SDS011;6529;50.566;9.774;2023-06-26T12:17:49;5.90;;;5.28;;
12925;SDS011;6529;50.566;9.774;2023-06-26T12:20:18;6.10;;;5.50;;
12925;SDS011;6529;50.566;9.774;2023-06-26T12:22:49;6.20;;;5.60;;
12925;SDS011;6529;50.566;9.774;2023-06-26T12:25:14;6.07;;;5.47;;
12925;SDS011;6529;50.566;9.774;2023-06-26T12:27:40;6.60;;;5.63;;
12925;SDS011;6529;50.566;9.774;2023-06-26T12:30:06;7.15;;;6.00;;
12925;SDS011;6529;50.566;9.774;2023-06-26T12:32:32;6.50;;;5.90;;
12925;SDS011;6529;50.566;9.774;2023-06-26T12:34:59;6.22;;;5.63;;
12925;SDS011;6529;50.566;9.774;2023-06-26T12:37:25;6.15;;;5.55;;
12925;SDS011;6529;50.566;9.774;2023-06-26T12:39:52;6.50;;;5.90;;
12925;SDS011;6529;50.566;9.774;2023-06-26T12:42:19;6.18;;;5.57;;
12925;SDS011;6529;50.566;9.774;2023-06-26T12:44:46;6.40;;;5.55;;
12925;SDS011;6529;50.566;9.774;2023-06-26T12:47:13;6.82;;;5.70;;
12925;SDS011;6529;50.566;9.774;2023-06-26T12:49:44;7.07;;;5.53;;
12925;SDS011;6529;50.566;9.774;2023-06-26T12:52:14;6.00;;;5.50;;
12925;SDS011;6529;50.566;9.774;2023-06-26T12:54:41;5.63;;;5.00;;
12925;SDS011;6529;50.566;9.774;2023-06-26T12:57:08;6.50;;;5.15;;
12925;SDS011;6529;50.566;9.774;2023-06-26T12:59:37;8.10;;;5.22;;
12925;SDS011;6529;50.566;9.774;2023-06-26T13:02:04;5.47;;;4.97;;
12925;SDS011;6529;50.566;9.774;2023-06-26T13:04:30;6.45;;;5.00;;
12925;SDS011;6529;50.566;9.774;2023-06-26T13:06:55;5.40;;;4.50;;
12925;SDS011;6529;50.566;9.774;2023-06-26T13:09:21;5.55;;;5.05;;
12925;SDS011;6529;50.566;9.774;2023-06-26T13:11:51;5.13;;;4.63;;
12925;SDS011;6529;50.566;9.774;2023-06-26T13:14:18;5.53;;;5.03;;
12925;SDS011;6529;50.566;9.774;2023-06-26T13:16:43;7.10;;;4.80;;
12925;SDS011;6529;50.566;9.774;2023-06-26T13:19:09;5.75;;;5.10;;
12925;SDS011;6529;50.566;9.774;2023-06-26T13:21:35;5.65;;;4.82;;
12925;SDS011;6529;50.566;9.774;2023-06-26T13:24:01;5.95;;;4.47;;
12925;SDS011;6529;50.566;9.774;2023-06-26T13:26:29;5.68;;;4.65;;
12925;SDS011;6529;50.566;9.774;2023-06-26T13:28:55;6.63;;;4.65;;
12925;SDS011;6529;50.566;9.774;2023-06-26T13:31:21;5.20;;;4.50;;
12925;SDS011;6529;50.566;9.774;2023-06-26T13:33:47;7.13;;;4.90;;
12925;SDS011;6529;50.566;9.774;2023-06-26T13:36:17;6.55;;;5.00;;
12925;SDS011;6529;50.566;9.774;2023-06-26T13:38:43;5.80;;;4.38;;
12925;SDS011;6529;50.566;9.774;2023-06-26T13:41:08;6.30;;;5.05;;
12925;SDS011;6529;50.566;9.774;2023-06-26T13:43:34;6.78;;;4.93;;
12925;SDS011;6529;50.566;9.774;2023-06-26T13:46:00;7.03;;;5.00;;
12925;SDS011;6529;50.566;9.774;2023-06-26T13:48:26;6.20;;;5.25;;
12925;SDS011;6529;50.566;9.774;2023-06-26T13:50:52;7.78;;;5.50;;
12925;SDS011;6529;50.566;9.774;2023-06-26T13:53:18;6.47;;;5.30;;
12925;SDS011;6529;50.566;9.774;2023-06-26T13:55:44;6.90;;;5.72;;
12925;SDS011;6529;50.566;9.774;2023-06-26T13:58:10;6.50;;;5.57;;
12925;SDS011;6529;50.566;9.774;2023-06-26T14:00:36;6.50;;;5.80;;
12925;SDS011;6529;50.566;9.774;2023-06-26T14:03:05;6.45;;;5.85;;
12925;SDS011;6529;50.566;9.774;2023-06-26T14:05:35;6.63;;;5.90;;
12925;SDS011;6529;50.566;9.774;2023-06-26T14:08:02;8.35;;;6.43;;
12925;SDS011;6529;50.566;9.774;2023-06-26T14:10:29;6.88;;;6.07;;
12925;SDS011;6529;50.566;9.774;2023-06-26T14:12:55;6.40;;;5.45;;
12925;SDS011;6529;50.566;9.774;2023-06-26T14:15:21;6.38;;;5.65;;
12925;SDS011;6529;50.566;9.774;2023-06-26T14:17:46;8.02;;;5.25;;
12925;SDS011;6529;50.566;9.774;2023-06-26T14:20:15;5.22;;;4.72;;
12925;SDS011;6529;50.566;9.774;2023-06-26T14:22:41;6.80;;;4.70;;
12925;SDS011;6529;50.566;9.774;2023-06-26T14:25:08;9.48;;;4.90;;
12925;SDS011;6529;50.566;9.774;2023-06-26T14:27:35;7.15;;;4.75;;
12925;SDS011;6529;50.566;9.774;2023-06-26T14:30:02;5.97;;;4.57;;
12925;SDS011;6529;50.566;9.774;2023-06-26T14:32:28;5.10;;;4.07;;
12925;SDS011;6529;50.566;9.774;2023-06-26T14:34:54;5.68;;;4.43;;
12925;SDS011;6529;50.566;9.774;2023-06-26T14:37:20;5.55;;;4.72;;
12925;SDS011;6529;50.566;9.774;2023-06-26T14:39:45;6.53;;;4.57;;
12925;SDS011;6529;50.566;9.774;2023-06-26T14:42:11;8.52;;;4.40;;
12925;SDS011;6529;50.566;9.774;2023-06-26T14:44:37;5.50;;;4.40;;
12925;SDS011;6529;50.566;9.774;2023-06-26T14:47:02;4.82;;;3.70;;
12925;SDS011;6529;50.566;9.774;2023-06-26T14:49:29;4.45;;;4.05;;
12925;SDS011;6529;50.566;9.774;2023-06-26T14:51:54;4.13;;;3.72;;
12925;SDS011;6529;50.566;9.774;2023-06-26T14:54:20;7.65;;;3.60;;
12925;SDS011;6529;50.566;9.774;2023-06-26T14:56:46;4.70;;;3.40;;
12925;SDS011;6529;50.566;9.774;2023-06-26T14:59:11;5.03;;;3.38;;
12925;SDS011;6529;50.566;9.774;2023-06-26T15:01:37;5.03;;;3.40;;
12925;SDS011;6529;50.566;9.774;2023-06-26T15:04:04;5.10;;;3.55;;
12925;SDS011;6529;50.566;9.774;2023-06-26T15:06:30;5.90;;;3.45;;
12925;SDS011;6529;50.566;9.774;2023-06-26T15:08:56;4.85;;;3.40;;
12925;SDS011;6529;50.566;9.774;2023-06-26T15:11:21;3.80;;;2.90;;
12925;SDS011;6529;50.566;9.774;2023-06-26T15:13:47;4.60;;;3.28;;
12925;SDS011;6529;50.566;9.774;2023-06-26T15:16:12;5.15;;;3.05;;
12925;SDS011;6529;50.566;9.774;2023-06-26T15:18:39;4.28;;;3.10;;
12925;SDS011;6529;50.566;9.774;2023-06-26T15:21:05;3.80;;;2.95;;
12925;SDS011;6529;50.566;9.774;2023-06-26T15:23:31;4.55;;;3.17;;
12925;SDS011;6529;50.566;9.774;2023-06-26T15:25:56;3.28;;;2.75;;